createdAt,value
2019-04-21T00:01:05.684Z,9.60
2019-04-21T00:03:35.625Z,9.60
2019-04-21T00:06:18.614Z,9.60
2019-04-21T00:08:50.495Z,9.30
2019-04-21T00:11:17.194Z,9.00
2019-04-21T00:13:39.416Z,8.80
2019-04-21T00:15:58.960Z,8.70
2019-04-21T00:18:40.776Z,8.40
2019-04-21T00:21:12.345Z,8.30
2019-04-21T00:23:42.460Z,8.30
2019-04-21T00:26:09.116Z,8.10
2019-04-21T00:28:53.400Z,8.10
2019-04-21T00:31:12.666Z,8.40
2019-04-21T00:33:26.778Z,8.60
2019-04-21T00:35:57.753Z,8.60
2019-04-21T00:38:49.060Z,8.60
2019-04-21T00:41:05.513Z,8.60
2019-04-21T00:43:35.303Z,8.50
2019-04-21T00:45:56.911Z,8.50
2019-04-21T00:48:37.325Z,8.60
2019-04-21T00:51:16.930Z,8.60
2019-04-21T00:53:45.102Z,8.60
2019-04-21T00:58:33.245Z,8.50
2019-04-21T01:00:58.089Z,8.60
2019-04-21T01:03:46.968Z,8.60
2019-04-21T01:05:57.334Z,8.60
2019-04-21T01:08:29.234Z,8.40
2019-04-21T01:10:43.334Z,8.10
2019-04-21T01:13:21.639Z,8.00
2019-04-21T01:15:53.347Z,8.10
2019-04-21T01:18:16.581Z,8.10
2019-04-21T01:20:24.822Z,8.10
2019-04-21T01:22:51.645Z,8.30
2019-04-21T01:25:25.860Z,8.30
2019-04-21T01:27:58.780Z,8.40
2019-04-21T01:30:34.735Z,8.20
2019-04-21T01:33:08.259Z,8.20
2019-04-21T01:35:35.625Z,8.10
2019-04-21T01:38:01.920Z,8.20
2019-04-21T01:42:58.577Z,8.00
2019-04-21T01:45:31.809Z,8.00
2019-04-21T01:48:01.316Z,7.90
2019-04-21T01:50:33.170Z,7.70
2019-04-21T01:53:03.743Z,7.60
2019-04-21T01:55:39.374Z,7.70
2019-04-21T01:57:57.482Z,7.80
2019-04-21T02:00:45.578Z,7.90
2019-04-21T02:03:37.368Z,7.80
2019-04-21T02:05:54.955Z,7.60
2019-04-21T02:08:11.202Z,7.60
2019-04-21T02:10:49.045Z,7.60
2019-04-21T02:13:09.011Z,7.60
2019-04-21T02:15:41.990Z,7.60
2019-04-21T02:18:08.952Z,7.70
2019-04-21T02:20:26.914Z,7.30
2019-04-21T02:23:26.397Z,7.20
2019-04-21T02:25:50.632Z,7.10
2019-04-21T02:28:03.295Z,6.90
2019-04-21T02:30:47.501Z,7.00
2019-04-21T02:33:16.923Z,7.10
2019-04-21T02:40:38.530Z,7.40
2019-04-21T02:48:19.374Z,7.30
2019-04-21T02:55:31.183Z,7.10
2019-04-21T03:00:34.609Z,7.20
2019-04-21T03:03:25.997Z,7.20
2019-04-21T03:08:15.401Z,7.30
2019-04-21T03:10:51.752Z,7.30
2019-04-21T03:13:21.841Z,7.30
2019-04-21T03:20:42.457Z,6.70
2019-04-21T03:25:41.855Z,6.80
2019-04-21T03:38:06.206Z,7.00
2019-04-21T03:40:26.220Z,6.90
2019-04-21T03:43:01.832Z,6.90
2019-04-21T03:47:53.422Z,6.80
2019-04-21T03:53:32.513Z,6.60
2019-04-21T03:56:14.481Z,6.30
2019-04-21T04:01:08.004Z,5.90
2019-04-21T04:03:55.303Z,5.70
2019-04-21T04:06:21.729Z,5.70
2019-04-21T04:08:52.433Z,5.80
2019-04-21T04:11:25.110Z,6.00
2019-04-21T04:16:15.410Z,6.30
2019-04-21T04:18:46.635Z,6.20
2019-04-21T04:23:47.366Z,6.50
2019-04-21T04:26:09.134Z,6.60
2019-04-21T04:31:06.821Z,6.40
2019-04-21T04:33:37.363Z,6.30
2019-04-21T04:38:36.181Z,6.10
2019-04-21T04:41:22.283Z,5.90
2019-04-21T04:43:36.825Z,6.00
2019-04-21T04:48:35.281Z,6.30
2019-04-21T04:51:01.315Z,6.40
2019-04-21T04:56:07.670Z,6.40
2019-04-21T04:58:54.614Z,6.60
2019-04-21T05:01:06.145Z,6.80
2019-04-21T05:03:36.504Z,6.90
2019-04-21T05:06:38.845Z,6.90
2019-04-21T05:09:07.923Z,7.00
2019-04-21T05:11:30.847Z,7.10
2019-04-21T05:16:27.816Z,7.30
2019-04-21T05:18:55.305Z,7.50
2019-04-21T05:21:23.267Z,7.50
2019-04-21T05:23:31.250Z,7.60
2019-04-21T05:25:54.399Z,7.70
2019-04-21T05:28:21.457Z,7.80
2019-04-21T05:31:18.433Z,7.90
2019-04-21T05:33:54.299Z,8.10
2019-04-21T05:36:29.554Z,8.20
2019-04-21T05:39:07.525Z,8.20
2019-04-21T05:41:22.126Z,8.20
2019-04-21T05:43:56.403Z,8.10
2019-04-21T05:46:35.627Z,8.30
2019-04-21T05:49:20.496Z,8.30
2019-04-21T05:51:55.684Z,8.40
2019-04-21T05:54:39.604Z,8.50
2019-04-21T05:56:59.902Z,8.60
2019-04-21T05:59:29.127Z,8.70
2019-04-21T06:02:07.212Z,9.00
2019-04-21T06:04:38.557Z,9.00
2019-04-21T06:06:56.880Z,9.20
2019-04-21T06:09:32.504Z,9.30
2019-04-21T06:11:51.261Z,9.20
2019-04-21T06:14:25.387Z,9.20
2019-04-21T06:19:22.302Z,9.30
2019-04-21T06:21:45.460Z,9.60
2019-04-21T06:24:18.814Z,9.80
2019-04-21T06:26:54.748Z,9.60
2019-04-21T06:29:10.128Z,9.60
2019-04-21T06:34:08.226Z,9.90
2019-04-21T06:39:23.023Z,10.20
2019-04-21T06:41:33.921Z,10.30
2019-04-21T06:44:07.595Z,10.40
2019-04-21T06:46:35.392Z,10.50
2019-04-21T06:56:30.652Z,10.90
2019-04-21T06:58:51.878Z,10.80
2019-04-21T07:01:26.463Z,10.90
2019-04-21T07:04:03.644Z,11.00
2019-04-21T07:06:23.437Z,11.10
2019-04-21T07:08:56.648Z,11.30
2019-04-21T07:11:14.820Z,11.60
2019-04-21T07:13:38.848Z,11.80
2019-04-21T07:16:19.443Z,11.90
2019-04-21T07:18:42.895Z,11.90
2019-04-21T07:21:06.493Z,12.00
2019-04-21T07:23:42.346Z,12.10
2019-04-21T07:26:03.004Z,12.20
2019-04-21T07:28:40.348Z,12.30
2019-04-21T07:31:11.200Z,12.50
2019-04-21T07:36:05.039Z,12.80
2019-04-21T07:38:28.623Z,12.90
2019-04-21T07:40:54.528Z,12.80
2019-04-21T07:43:23.337Z,12.90
2019-04-21T07:45:49.812Z,12.90
2019-04-21T07:48:29.215Z,13.10
2019-04-21T07:51:07.532Z,13.30
2019-04-21T07:55:45.819Z,13.40
2019-04-21T07:58:29.897Z,13.50
2019-04-21T08:03:31.911Z,13.40
2019-04-21T08:06:00.204Z,13.50
2019-04-21T08:08:20.857Z,13.60
2019-04-21T08:10:52.577Z,13.60
2019-04-21T08:13:28.927Z,13.70
2019-04-21T08:16:04.755Z,13.80
2019-04-21T08:18:23.251Z,13.90
2019-04-21T08:20:41.882Z,14.10
2019-04-21T08:23:15.742Z,14.20
2019-04-21T08:25:53.346Z,14.50
2019-04-21T08:28:17.856Z,14.70
2019-04-21T08:30:36.223Z,14.80
2019-04-21T08:33:16.176Z,15.00
2019-04-21T08:38:08.623Z,15.20
2019-04-21T08:40:36.798Z,15.40
2019-04-21T08:43:02.502Z,15.60
2019-04-21T08:45:35.389Z,15.60
2019-04-21T08:48:02.922Z,15.70
2019-04-21T08:50:25.384Z,15.80
2019-04-21T08:55:48.891Z,16.20
2019-04-21T08:58:39.483Z,16.30
2019-04-21T09:01:25.534Z,16.30
2019-04-21T09:03:51.665Z,16.30
2019-04-21T09:06:22.212Z,16.50
2019-04-21T09:08:46.006Z,16.70
2019-04-21T09:11:16.286Z,16.90
2019-04-21T09:13:42.604Z,17.00
2019-04-21T09:16:08.435Z,17.30
2019-04-21T09:18:39.557Z,17.40
2019-04-21T09:21:13.517Z,17.50
2019-04-21T09:23:41.547Z,17.50
2019-04-21T09:26:05.124Z,17.80
2019-04-21T09:28:32.683Z,17.90
2019-04-21T09:30:52.194Z,18.10
2019-04-21T09:33:14.074Z,18.20
2019-04-21T09:35:50.129Z,18.30
2019-04-21T09:38:19.345Z,18.60
2019-04-21T09:40:44.129Z,18.60
2019-04-21T09:43:09.820Z,18.60
2019-04-21T09:45:35.569Z,18.70
2019-04-21T09:48:07.960Z,18.90
2019-04-21T09:50:31.768Z,19.00
2019-04-21T09:53:05.389Z,19.30
2019-04-21T09:55:36.419Z,19.40
2019-04-21T09:58:08.704Z,19.30
2019-04-21T10:00:29.329Z,19.40
2019-04-21T10:03:00.925Z,19.40
2019-04-21T10:05:21.542Z,19.70
2019-04-21T10:07:48.929Z,19.80
2019-04-21T10:10:15.615Z,19.90
2019-04-21T10:12:43.275Z,20.00
2019-04-21T10:15:10.648Z,20.10
2019-04-21T10:17:44.932Z,20.30
2019-04-21T10:20:13.703Z,20.30
2019-04-21T10:22:41.330Z,20.50
2019-04-21T10:25:10.290Z,20.70
2019-04-21T10:27:37.131Z,20.80
2019-04-21T10:30:07.858Z,20.60
2019-04-21T10:32:34.586Z,20.50
2019-04-21T10:35:01.181Z,20.80
2019-04-21T10:37:40.114Z,20.90
2019-04-21T10:39:56.203Z,21.10
2019-04-21T10:42:23.684Z,21.30
2019-04-21T10:44:50.294Z,21.60
2019-04-21T10:47:16.978Z,21.80
2019-04-21T10:49:44.566Z,21.70
2019-04-21T10:52:17.106Z,21.60
2019-04-21T10:55:06.935Z,21.80
2019-04-21T10:57:28.582Z,21.90
2019-04-21T10:59:56.479Z,22.20
2019-04-21T11:02:37.460Z,22.30
2019-04-21T11:05:05.305Z,22.20
2019-04-21T11:07:55.366Z,22.30
2019-04-21T11:10:14.254Z,22.50
2019-04-21T11:12:41.372Z,22.70
2019-04-21T11:15:09.428Z,22.90
2019-04-21T11:17:36.475Z,23.00
2019-04-21T11:20:04.668Z,23.10
2019-04-21T11:22:33.505Z,23.20
2019-04-21T11:25:00.525Z,23.30
2019-04-21T11:27:27.202Z,23.40
2019-04-21T11:29:53.657Z,23.60
2019-04-21T11:32:21.137Z,23.80
2019-04-21T11:34:47.656Z,23.70
2019-04-21T11:37:16.426Z,23.70
2019-04-21T11:39:51.962Z,23.90
2019-04-21T11:42:13.313Z,24.00
2019-04-21T11:44:39.885Z,24.30
2019-04-21T11:47:08.233Z,24.50
2019-04-21T11:49:36.994Z,24.50
2019-04-21T11:52:04.808Z,24.60
2019-04-21T11:54:31.377Z,24.80
2019-04-21T11:57:00.575Z,25.00
2019-04-21T11:59:26.110Z,24.90
2019-04-21T12:01:53.957Z,25.10
2019-04-21T12:04:21.285Z,25.20
2019-04-21T12:06:49.514Z,25.40
2019-04-21T12:09:16.889Z,25.50
2019-04-21T12:11:43.552Z,25.70
2019-04-21T12:14:10.173Z,25.80
2019-04-21T12:16:37.062Z,25.90
2019-04-21T12:19:05.008Z,25.70
2019-04-21T12:21:47.991Z,26.00
2019-04-21T12:24:00.685Z,26.00
2019-04-21T12:26:28.331Z,25.80
2019-04-21T12:28:55.832Z,25.80
2019-04-21T12:31:43.449Z,26.00
2019-04-21T12:34:12.081Z,26.50
2019-04-21T12:36:39.954Z,26.50
2019-04-21T12:39:09.119Z,26.80
2019-04-21T12:41:36.824Z,27.10
2019-04-21T12:44:04.501Z,27.10
2019-04-21T12:46:31.846Z,27.10
2019-04-21T12:48:59.886Z,27.00
2019-04-21T12:51:27.949Z,26.80
2019-04-21T12:53:54.594Z,27.00
2019-04-21T12:56:21.169Z,27.40
2019-04-21T12:58:48.977Z,27.50
2019-04-21T13:01:16.753Z,28.00
2019-04-21T13:03:43.781Z,28.00
2019-04-21T13:06:11.644Z,27.80
2019-04-21T13:08:46.586Z,28.00
2019-04-21T13:11:07.338Z,28.40
2019-04-21T13:13:35.705Z,28.60
2019-04-21T13:16:03.222Z,28.70
2019-04-21T13:18:30.971Z,28.70
2019-04-21T13:21:00.929Z,28.80
2019-04-21T13:23:27.104Z,29.40
2019-04-21T13:25:54.132Z,29.80
2019-04-21T13:28:20.915Z,29.70
2019-04-21T13:30:48.507Z,29.80
2019-04-21T13:33:15.477Z,29.80
2019-04-21T13:35:42.005Z,30.00
2019-04-21T13:38:19.949Z,30.10
2019-04-21T13:41:05.358Z,30.70
2019-04-21T13:43:21.064Z,30.60
2019-04-21T13:45:47.851Z,31.40
2019-04-21T13:48:14.818Z,31.20
2019-04-21T13:50:41.542Z,30.80
2019-04-21T13:53:09.037Z,31.20
2019-04-21T13:55:36.989Z,31.40
2019-04-21T13:58:04.294Z,32.50
2019-04-21T14:00:31.767Z,32.40
2019-04-21T14:02:58.792Z,32.40
2019-04-21T14:05:26.519Z,33.60
2019-04-21T14:07:54.375Z,33.90
2019-04-21T14:10:21.863Z,34.40
2019-04-21T14:12:48.914Z,33.60
2019-04-21T14:15:16.156Z,35.10
2019-04-21T14:17:42.705Z,35.70
2019-04-21T14:20:09.481Z,37.90
2019-04-21T14:22:36.056Z,38.90
2019-04-21T14:25:07.907Z,40.50
2019-04-21T14:27:34.555Z,40.30
2019-04-21T14:30:02.753Z,40.20
2019-04-21T14:32:29.832Z,40.70
2019-04-21T14:34:56.959Z,41.30
2019-04-21T14:37:24.719Z,40.30
2019-04-21T14:39:59.497Z,38.90
2019-04-21T14:42:20.525Z,39.40
2019-04-21T14:44:47.002Z,40.50
2019-04-21T14:47:18.855Z,40.80
2019-04-21T14:50:05.033Z,41.00
2019-04-21T14:52:32.987Z,41.10
2019-04-21T14:55:02.731Z,41.60
2019-04-21T14:57:29.554Z,41.40
2019-04-21T14:59:57.204Z,41.50
2019-04-21T15:02:25.455Z,41.60
2019-04-21T15:04:53.508Z,41.00
2019-04-21T15:07:21.228Z,41.00
2019-04-21T15:10:01.190Z,40.80
2019-04-21T15:12:16.282Z,40.80
2019-04-21T15:14:43.912Z,40.30
2019-04-21T15:17:10.600Z,40.00
2019-04-21T15:19:42.845Z,40.20
2019-04-21T15:22:08.684Z,40.00
2019-04-21T15:24:36.240Z,39.90
2019-04-21T15:27:03.147Z,39.40
2019-04-21T15:29:30.775Z,38.90
2019-04-21T15:31:58.691Z,39.00
2019-04-21T15:34:26.945Z,38.80
2019-04-21T15:36:53.653Z,37.40
2019-04-21T15:39:21.385Z,35.40
2019-04-21T15:41:48.334Z,36.50
2019-04-21T15:44:14.818Z,37.00
2019-04-21T15:46:41.907Z,36.30
2019-04-21T15:49:09.204Z,35.70
2019-04-21T15:51:35.826Z,34.30
2019-04-21T15:54:03.234Z,32.80
2019-04-21T15:56:33.053Z,33.60
2019-04-21T15:59:08.450Z,32.70
2019-04-21T16:01:52.528Z,32.20
2019-04-21T16:04:19.068Z,32.20
2019-04-21T16:06:45.755Z,31.70
2019-04-21T16:09:14.978Z,31.50
2019-04-21T16:11:42.064Z,29.30
2019-04-21T16:14:10.152Z,28.80
2019-04-21T16:16:36.706Z,28.00
2019-04-21T16:19:03.929Z,27.60
2019-04-21T16:21:31.751Z,27.30
2019-04-21T16:24:00.441Z,27.50
2019-04-21T16:26:28.687Z,27.20
2019-04-21T16:28:55.369Z,27.40
2019-04-21T16:31:22.714Z,26.70
2019-04-21T16:33:49.275Z,26.80
2019-04-21T16:36:17.090Z,26.40
2019-04-21T16:38:44.105Z,26.40
2019-04-21T16:41:12.087Z,25.90
2019-04-21T16:43:38.639Z,25.50
2019-04-21T16:46:06.687Z,25.30
2019-04-21T16:48:33.806Z,25.40
2019-04-21T16:51:01.557Z,25.30
2019-04-21T16:53:30.354Z,24.90
2019-04-21T16:55:59.385Z,24.70
2019-04-21T16:58:42.948Z,24.90
2019-04-21T17:01:15.957Z,24.80
2019-04-21T17:03:40.173Z,24.70
2019-04-21T17:06:11.451Z,24.20
2019-04-21T17:08:38.831Z,24.20
2019-04-21T17:11:12.833Z,24.00
2019-04-21T17:13:38.253Z,23.80
2019-04-21T17:16:28.655Z,23.60
2019-04-21T17:18:47.527Z,23.30
2019-04-21T17:21:03.114Z,23.10
2019-04-21T17:23:31.374Z,22.90
2019-04-21T17:25:59.145Z,22.80
2019-04-21T17:28:25.896Z,22.80
2019-04-21T17:30:52.687Z,22.80
2019-04-21T17:33:23.327Z,22.60
2019-04-21T17:35:49.136Z,22.30
2019-04-21T17:38:16.362Z,22.20
2019-04-21T17:40:44.034Z,22.20
2019-04-21T17:43:14.053Z,22.20
2019-04-21T17:45:39.445Z,22.10
2019-04-21T17:48:12.314Z,22.10
2019-04-21T17:50:43.629Z,22.00
2019-04-21T17:53:35.741Z,21.80
2019-04-21T17:56:19.548Z,21.20
2019-04-21T17:58:43.378Z,21.00
2019-04-21T18:01:23.144Z,21.00
2019-04-21T18:03:53.519Z,20.80
2019-04-21T18:06:07.520Z,20.80
2019-04-21T18:08:40.499Z,20.80
2019-04-21T18:11:00.832Z,20.80
2019-04-21T18:13:21.774Z,20.60
2019-04-21T18:16:01.705Z,19.90
2019-04-21T18:18:16.718Z,19.60
2019-04-21T18:20:46.107Z,19.70
2019-04-21T18:23:39.476Z,19.70
2019-04-21T18:26:03.880Z,19.60
2019-04-21T18:28:24.119Z,19.60
2019-04-21T18:30:54.673Z,19.50
2019-04-21T18:33:31.443Z,19.10
2019-04-21T18:35:59.682Z,18.90
2019-04-21T18:39:05.644Z,18.60
2019-04-21T18:41:17.884Z,18.50
2019-04-21T18:44:17.716Z,18.50
2019-04-21T18:46:42.606Z,18.30
2019-04-21T18:48:59.179Z,18.30
2019-04-21T18:51:46.060Z,18.10
2019-04-21T18:54:25.136Z,18.20
2019-04-21T18:56:35.840Z,18.20
2019-04-21T18:59:04.429Z,18.00
2019-04-21T19:01:34.744Z,17.50
2019-04-21T19:04:00.416Z,17.50
2019-04-21T19:06:46.832Z,17.50
2019-04-21T19:09:10.313Z,17.30
2019-04-21T19:11:43.560Z,17.30
2019-04-21T19:14:28.587Z,17.30
2019-04-21T19:16:53.998Z,16.90
2019-04-21T19:21:33.429Z,17.00
2019-04-21T19:24:18.549Z,16.80
2019-04-21T19:26:49.678Z,16.60
2019-04-21T19:29:12.513Z,16.50
2019-04-21T19:31:39.767Z,16.50
2019-04-21T19:33:51.703Z,16.40
2019-04-21T19:36:13.175Z,16.40
2019-04-21T19:38:48.872Z,16.20
2019-04-21T19:41:27.414Z,16.20
2019-04-21T19:43:58.936Z,16.20
2019-04-21T19:46:23.646Z,15.90
2019-04-21T19:49:01.183Z,15.80
2019-04-21T19:51:18.115Z,15.70
2019-04-21T19:53:44.903Z,15.50
2019-04-21T19:56:00.636Z,15.50
2019-04-21T19:58:32.992Z,15.40
2019-04-21T20:00:57.359Z,15.10
2019-04-21T20:03:24.417Z,14.80
2019-04-21T20:06:00.390Z,14.90
2019-04-21T20:08:32.591Z,14.80
2019-04-21T20:11:03.857Z,14.80
2019-04-21T20:13:50.879Z,14.50
2019-04-21T20:16:01.392Z,14.50
2019-04-21T20:18:24.466Z,14.50
2019-04-21T20:20:43.747Z,14.20
2019-04-21T20:23:18.023Z,14.10
2019-04-21T20:25:43.737Z,14.10
2019-04-21T20:28:17.369Z,14.10
2019-04-21T20:30:56.006Z,13.90
2019-04-21T20:33:42.828Z,14.10
2019-04-21T20:38:16.131Z,14.10
2019-04-21T20:40:44.136Z,14.10
2019-04-21T20:43:17.727Z,14.20
2019-04-21T20:45:49.455Z,14.10
2019-04-21T20:47:59.924Z,14.10
2019-04-21T20:50:37.953Z,14.10
2019-04-21T20:53:11.255Z,14.00
2019-04-21T20:55:30.247Z,14.00
2019-04-21T20:57:59.654Z,14.00
2019-04-21T21:00:45.682Z,13.90
2019-04-21T21:03:09.246Z,13.60
2019-04-21T21:05:27.753Z,13.40
2019-04-21T21:08:03.606Z,13.50
2019-04-21T21:10:29.542Z,13.40
2019-04-21T21:13:06.268Z,13.50
2019-04-21T21:15:24.643Z,13.70
2019-04-21T21:18:04.418Z,13.50
2019-04-21T21:20:26.284Z,13.50
2019-04-21T21:22:46.847Z,13.50
2019-04-21T21:25:25.564Z,13.20
2019-04-21T21:27:47.113Z,13.10
2019-04-21T21:30:17.461Z,13.20
2019-04-21T21:32:49.374Z,13.10
2019-04-21T21:35:13.749Z,13.10
2019-04-21T21:37:49.535Z,13.00
2019-04-21T21:40:18.095Z,12.80
2019-04-21T21:42:30.519Z,12.80
2019-04-21T21:45:00.467Z,12.60
2019-04-21T21:47:39.526Z,12.50
2019-04-21T21:50:01.200Z,12.60
2019-04-21T21:52:32.731Z,12.40
2019-04-21T21:54:45.635Z,12.60
2019-04-21T21:57:12.449Z,12.70
2019-04-21T21:59:40.434Z,12.70
2019-04-21T22:02:09.407Z,12.80
2019-04-21T22:04:37.237Z,12.70
2019-04-21T22:07:09.225Z,12.60
2019-04-21T22:09:32.382Z,12.60
2019-04-21T22:12:04.407Z,12.60
2019-04-21T22:14:34.040Z,12.60
2019-04-21T22:17:12.277Z,12.60
2019-04-21T22:19:47.353Z,12.60
2019-04-21T22:22:11.510Z,12.70
2019-04-21T22:24:35.125Z,12.40
2019-04-21T22:26:49.387Z,12.10
2019-04-21T22:29:16.073Z,12.10
2019-04-21T22:31:44.401Z,12.20
2019-04-21T22:34:13.192Z,12.30
2019-04-21T22:36:48.846Z,12.40
2019-04-21T22:39:31.695Z,12.50
2019-04-21T22:41:43.710Z,12.40
2019-04-21T22:44:12.267Z,12.30
2019-04-21T22:46:52.090Z,12.10
2019-04-21T22:49:10.362Z,12.30
2019-04-21T22:51:40.671Z,12.60
2019-04-21T22:54:03.995Z,12.80
2019-04-21T22:56:33.543Z,12.80
2019-04-21T22:58:59.014Z,12.60
2019-04-21T23:01:33.690Z,12.70
2019-04-21T23:04:00.451Z,12.80
2019-04-21T23:06:28.676Z,12.40
2019-04-21T23:08:51.231Z,12.00
2019-04-21T23:11:18.383Z,11.90
2019-04-21T23:13:55.586Z,11.80
2019-04-21T23:16:21.502Z,11.60
2019-04-21T23:18:59.422Z,11.50
2019-04-21T23:21:27.845Z,11.40
2019-04-21T23:24:02.868Z,11.60
2019-04-21T23:26:29.845Z,11.60
2019-04-21T23:28:58.532Z,11.50
2019-04-21T23:31:29.085Z,11.50
2019-04-21T23:33:36.647Z,11.50
2019-04-21T23:36:11.866Z,11.40
2019-04-21T23:38:37.486Z,11.40
2019-04-21T23:41:03.649Z,11.40
2019-04-21T23:43:31.107Z,11.30
2019-04-21T23:45:57.255Z,11.40
2019-04-21T23:48:36.533Z,11.20
2019-04-21T23:51:03.370Z,11.30
2019-04-21T23:53:21.504Z,11.20
2019-04-21T23:55:49.413Z,11.20
2019-04-21T23:58:23.220Z,11.00
